Time;durP1;ratioP1;P1;durP2;ratioP2;P2;SDS_P1;SDS_P2;PMS_P1;PMS_P2;Temp;Humidity;BMP_temperature;BMP_pressure;BME280_temperature;BME280_humidity;BME280_pressure;Samples;Min_cycle;Max_cycle;Signal;HPM_P1;HPM_P2
2021/07/18 00:02:20;;;;;;;7.47;3.50;;;;;;;;;;5050356;28;20037;-82
2021/07/18 00:04:45;;;;;;;12.10;4.47;;;;;;;;;;5065805;28;21058;-82
2021/07/18 00:07:10;;;;;;;13.30;3.73;;;;;;;;;;5068626;28;20262;-82
2021/07/18 00:09:36;;;;;;;22.42;4.03;;;;;;;;;;5067543;28;20343;-82
2021/07/18 00:12:01;;;;;;;10.68;3.60;;;;;;;;;;5068202;28;20021;-82
2021/07/18 00:14:26;;;;;;;7.72;3.00;;;;;;;;;;5068286;28;20024;-82
2021/07/18 00:16:51;;;;;;;9.18;3.70;;;;;;;;;;5067911;28;20023;-82
2021/07/18 00:19:16;;;;;;;6.63;3.10;;;;;;;;;;5046658;28;20030;-82
2021/07/18 00:21:42;;;;;;;9.63;3.50;;;;;;;;;;5059025;28;20547;-82
2021/07/18 00:24:07;;;;;;;10.68;3.33;;;;;;;;;;5040927;28;20071;-82
2021/07/18 00:26:32;;;;;;;10.20;3.67;;;;;;;;;;5068399;28;20552;-82
2021/07/18 00:28:57;;;;;;;6.30;3.15;;;;;;;;;;5067330;28;20016;-82
2021/07/18 00:31:23;;;;;;;9.57;3.10;;;;;;;;;;5068506;28;20024;-82
2021/07/18 00:33:48;;;;;;;7.95;3.50;;;;;;;;;;5049787;28;20780;-82
2021/07/18 00:36:13;;;;;;;12.25;3.50;;;;;;;;;;5068484;28;20048;-82
2021/07/18 00:38:38;;;;;;;8.00;3.40;;;;;;;;;;5057257;28;20056;-82
2021/07/18 00:41:03;;;;;;;9.85;3.63;;;;;;;;;;5053745;28;20051;-82
2021/07/18 00:43:29;;;;;;;8.63;3.43;;;;;;;;;;5048495;28;20051;-83
2021/07/18 00:45:55;;;;;;;8.40;3.10;;;;;;;;;;5049324;28;20265;-82
2021/07/18 00:48:20;;;;;;;9.73;3.97;;;;;;;;;;5052239;28;20071;-83
2021/07/18 00:50:45;;;;;;;7.80;4.18;;;;;;;;;;5033131;28;20024;-82
2021/07/18 00:53:11;;;;;;;9.00;3.83;;;;;;;;;;5067738;28;20049;-82
2021/07/18 00:55:40;;;;;;;9.63;3.55;;;;;;;;;;5049282;28;20262;-82
2021/07/18 00:58:05;;;;;;;9.27;3.83;;;;;;;;;;5066585;28;20055;-82
2021/07/18 01:00:30;;;;;;;10.27;3.60;;;;;;;;;;5049888;28;20047;-82
2021/07/18 01:02:55;;;;;;;11.82;3.60;;;;;;;;;;5067273;28;20063;-82
2021/07/18 01:05:21;;;;;;;9.43;3.97;;;;;;;;;;5057143;28;20021;-82
2021/07/18 01:07:46;;;;;;;8.48;4.10;;;;;;;;;;5048237;28;20291;-82
2021/07/18 01:10:12;;;;;;;15.67;5.13;;;;;;;;;;5066272;28;20993;-82
2021/07/18 01:12:37;;;;;;;8.82;4.00;;;;;;;;;;5062879;28;20275;-82
2021/07/18 01:15:02;;;;;;;10.07;3.78;;;;;;;;;;5055826;28;20554;-82
2021/07/18 01:17:28;;;;;;;6.45;3.38;;;;;;;;;;5037515;28;20504;-82
2021/07/18 01:19:54;;;;;;;8.50;3.53;;;;;;;;;;5057123;28;20170;-82
2021/07/18 01:22:19;;;;;;;10.30;3.70;;;;;;;;;;5058784;28;20107;-82
2021/07/18 01:24:44;;;;;;;8.65;3.88;;;;;;;;;;5056074;28;20036;-82
2021/07/18 01:27:10;;;;;;;8.93;3.95;;;;;;;;;;5059543;28;20051;-82
2021/07/18 01:29:35;;;;;;;7.07;3.88;;;;;;;;;;5043533;28;20025;-82
2021/07/18 01:32:01;;;;;;;6.35;3.80;;;;;;;;;;5049262;28;20035;-82
2021/07/18 01:34:26;;;;;;;9.18;4.45;;;;;;;;;;5048784;28;20074;-82
2021/07/18 01:36:52;;;;;;;9.40;3.95;;;;;;;;;;5061854;28;20025;-82
2021/07/18 01:39:18;;;;;;;9.77;3.53;;;;;;;;;;5055009;28;20118;-82
2021/07/18 01:41:43;;;;;;;15.18;4.72;;;;;;;;;;5061263;28;20039;-82
2021/07/18 01:44:09;;;;;;;13.27;3.78;;;;;;;;;;5066478;28;20028;-82
2021/07/18 01:46:34;;;;;;;15.00;4.22;;;;;;;;;;5066443;28;20076;-82
2021/07/18 01:49:01;;;;;;;12.10;4.93;;;;;;;;;;5065747;28;20021;-82
2021/07/18 01:51:26;;;;;;;8.45;4.18;;;;;;;;;;5045324;28;20068;-82
2021/07/18 01:53:55;;;;;;;10.98;4.03;;;;;;;;;;5057444;28;20064;-82
2021/07/18 01:56:20;;;;;;;8.43;4.25;;;;;;;;;;5049930;28;20455;-82
2021/07/18 01:58:47;;;;;;;7.70;3.63;;;;;;;;;;5059020;28;20319;-82
2021/07/18 02:01:12;;;;;;;12.93;5.20;;;;;;;;;;5036876;28;20607;-82
2021/07/18 02:03:37;;;;;;;15.47;4.20;;;;;;;;;;5051630;28;20097;-82
2021/07/18 02:06:02;;;;;;;15.03;3.93;;;;;;;;;;5052532;28;20278;-82
2021/07/18 02:08:27;;;;;;;12.73;4.70;;;;;;;;;;5051491;28;20629;-82
2021/07/18 02:10:53;;;;;;;7.63;3.90;;;;;;;;;;5052719;28;20024;-82
2021/07/18 02:13:18;;;;;;;6.80;4.10;;;;;;;;;;5071138;28;20347;-82
2021/07/18 02:15:43;;;;;;;10.43;3.55;;;;;;;;;;5052842;28;20254;-82
2021/07/18 02:18:08;;;;;;;10.05;4.20;;;;;;;;;;5068795;28;20443;-82
2021/07/18 02:20:34;;;;;;;16.70;4.07;;;;;;;;;;5063147;28;20027;-82
2021/07/18 02:22:59;;;;;;;8.77;4.45;;;;;;;;;;5035979;28;20027;-82
2021/07/18 02:25:27;;;;;;;6.75;4.18;;;;;;;;;;5070104;28;20297;-82
2021/07/18 02:27:53;;;;;;;11.70;4.55;;;;;;;;;;5069900;28;20128;-82
2021/07/18 02:30:20;;;;;;;7.53;4.75;;;;;;;;;;5070318;28;20052;-82
2021/07/18 02:32:45;;;;;;;10.82;5.20;;;;;;;;;;5051478;28;20040;-82
2021/07/18 02:35:12;;;;;;;9.15;4.75;;;;;;;;;;5070395;28;20379;-82
2021/07/18 02:37:37;;;;;;;9.10;4.65;;;;;;;;;;5051528;28;20021;-82
2021/07/18 02:40:03;;;;;;;8.95;4.35;;;;;;;;;;5069659;28;20120;-83
2021/07/18 02:42:28;;;;;;;8.90;4.10;;;;;;;;;;5053986;28;20477;-82
2021/07/18 02:44:54;;;;;;;12.88;4.25;;;;;;;;;;5059362;28;20046;-82
2021/07/18 02:47:19;;;;;;;8.48;4.53;;;;;;;;;;5070211;28;20020;-82
2021/07/18 02:49:44;;;;;;;8.23;4.15;;;;;;;;;;5068487;28;20028;-82
2021/07/18 02:52:09;;;;;;;10.13;5.27;;;;;;;;;;5051619;28;20032;-82
2021/07/18 02:54:35;;;;;;;10.63;4.35;;;;;;;;;;5061416;28;20707;-82
2021/07/18 02:57:00;;;;;;;8.07;4.32;;;;;;;;;;5050945;28;20036;-82
2021/07/18 02:59:26;;;;;;;9.23;3.95;;;;;;;;;;5059771;28;20020;-82
2021/07/18 03:01:51;;;;;;;6.72;3.97;;;;;;;;;;5051885;28;20069;-82
2021/07/18 03:04:16;;;;;;;8.07;4.07;;;;;;;;;;5068885;28;20028;-82
2021/07/18 03:06:41;;;;;;;8.00;3.90;;;;;;;;;;5047167;28;20255;-82
2021/07/18 03:09:06;;;;;;;8.40;3.63;;;;;;;;;;5064771;28;20266;-82
2021/07/18 03:11:32;;;;;;;8.73;4.00;;;;;;;;;;5064857;28;20263;-82
2021/07/18 03:13:57;;;;;;;9.50;4.35;;;;;;;;;;5069508;28;20025;-82
2021/07/18 03:16:22;;;;;;;9.43;3.30;;;;;;;;;;5071948;28;20055;-82
2021/07/18 03:18:47;;;;;;;7.33;3.53;;;;;;;;;;5087412;28;20263;-82
2021/07/18 03:21:12;;;;;;;8.38;3.72;;;;;;;;;;5069312;28;20349;-82
2021/07/18 03:23:38;;;;;;;6.28;3.08;;;;;;;;;;5035691;28;20024;-82
2021/07/18 03:26:03;;;;;;;10.30;4.37;;;;;;;;;;5068878;28;20549;-82
2021/07/18 03:28:28;;;;;;;11.93;3.50;;;;;;;;;;5067512;28;20267;-82
2021/07/18 03:30:53;;;;;;;6.50;3.72;;;;;;;;;;5050560;28;20012;-82
2021/07/18 03:33:19;;;;;;;8.15;3.83;;;;;;;;;;5068713;28;20016;-82
2021/07/18 03:35:44;;;;;;;8.25;4.07;;;;;;;;;;5050946;28;20081;-82
2021/07/18 03:38:10;;;;;;;8.38;3.80;;;;;;;;;;5066692;28;20032;-82
2021/07/18 03:40:35;;;;;;;7.63;4.13;;;;;;;;;;5068363;28;20361;-82
2021/07/18 03:43:00;;;;;;;6.97;3.65;;;;;;;;;;5065838;28;20494;-82
2021/07/18 03:45:25;;;;;;;7.90;3.40;;;;;;;;;;5059038;28;20506;-82
2021/07/18 03:47:50;;;;;;;8.73;3.57;;;;;;;;;;5066404;28;20255;-82
2021/07/18 03:50:16;;;;;;;10.95;3.88;;;;;;;;;;5047527;28;20263;-82
2021/07/18 03:52:42;;;;;;;5.07;3.00;;;;;;;;;;5049638;28;20048;-82
2021/07/18 03:55:07;;;;;;;5.40;3.30;;;;;;;;;;5068334;28;20032;-82
2021/07/18 03:57:32;;;;;;;9.63;3.35;;;;;;;;;;5067828;28;20133;-82
2021/07/18 03:59:57;;;;;;;8.17;3.30;;;;;;;;;;5055987;28;20048;-82
2021/07/18 04:02:23;;;;;;;4.85;3.13;;;;;;;;;;5038432;28;20310;-82
2021/07/18 04:04:48;;;;;;;6.22;3.08;;;;;;;;;;5067554;28;20020;-82
2021/07/18 04:07:13;;;;;;;9.33;3.13;;;;;;;;;;5061287;28;20017;-82
2021/07/18 04:09:38;;;;;;;5.72;2.95;;;;;;;;;;5053268;28;20264;-82
2021/07/18 04:12:04;;;;;;;6.45;3.25;;;;;;;;;;5046582;28;20020;-82
2021/07/18 04:14:29;;;;;;;6.55;3.03;;;;;;;;;;5049423;28;20161;-82
2021/07/18 04:16:54;;;;;;;5.35;3.00;;;;;;;;;;5049882;28;20052;-82
2021/07/18 04:19:19;;;;;;;9.93;3.45;;;;;;;;;;5066375;28;20123;-82
2021/07/18 04:21:45;;;;;;;9.17;3.83;;;;;;;;;;5054860;28;20032;-82
2021/07/18 04:24:10;;;;;;;5.50;3.53;;;;;;;;;;5054729;28;20630;-82
2021/07/18 04:26:35;;;;;;;9.77;3.60;;;;;;;;;;5068688;28;20277;-82
2021/07/18 04:29:00;;;;;;;15.73;6.25;;;;;;;;;;5067186;28;20032;-82
2021/07/18 04:31:25;;;;;;;16.00;3.22;;;;;;;;;;5068624;28;20037;-82
2021/07/18 04:33:51;;;;;;;5.93;2.93;;;;;;;;;;5049497;28;20025;-82
2021/07/18 04:36:16;;;;;;;16.33;3.72;;;;;;;;;;5048696;28;20356;-82
2021/07/18 04:38:41;;;;;;;10.95;3.78;;;;;;;;;;5048891;28;20046;-82
2021/07/18 04:41:07;;;;;;;5.82;3.03;;;;;;;;;;5059947;28;20552;-82
2021/07/18 04:43:32;;;;;;;7.97;3.67;;;;;;;;;;5040488;28;20021;-82
2021/07/18 04:45:57;;;;;;;9.07;4.00;;;;;;;;;;5061478;28;20535;-82
2021/07/18 04:48:22;;;;;;;13.40;3.93;;;;;;;;;;5048136;28;20321;-81
2021/07/18 04:50:47;;;;;;;6.80;3.35;;;;;;;;;;5067497;28;20270;-82
2021/07/18 04:53:13;;;;;;;12.18;3.78;;;;;;;;;;5054680;28;20012;-82
2021/07/18 04:55:38;;;;;;;8.20;3.38;;;;;;;;;;5041743;28;20024;-82
2021/07/18 04:58:03;;;;;;;7.17;3.40;;;;;;;;;;5059463;28;20031;-82
2021/07/18 05:00:28;;;;;;;9.83;3.63;;;;;;;;;;5053519;28;20346;-82
2021/07/18 05:02:54;;;;;;;8.10;4.10;;;;;;;;;;5048611;28;20278;-82
2021/07/18 05:05:20;;;;;;;9.95;3.88;;;;;;;;;;5067476;28;20024;-82
2021/07/18 05:07:49;;;;;;;10.95;3.45;;;;;;;;;;5064029;28;20392;-82
2021/07/18 05:10:17;;;;;;;8.32;3.45;;;;;;;;;;5052947;28;20628;-82
2021/07/18 05:12:42;;;;;;;13.88;3.90;;;;;;;;;;5039978;28;20104;-82
2021/07/18 05:15:08;;;;;;;10.63;3.95;;;;;;;;;;5066544;28;20524;-82
2021/07/18 05:17:33;;;;;;;12.20;4.05;;;;;;;;;;5044177;28;20812;-82
2021/07/18 05:19:58;;;;;;;10.20;3.70;;;;;;;;;;5059732;28;20384;-82
2021/07/18 05:22:24;;;;;;;10.98;4.45;;;;;;;;;;5052539;28;20455;-82
2021/07/18 05:24:50;;;;;;;9.85;5.25;;;;;;;;;;5064353;28;20074;-83
2021/07/18 05:27:15;;;;;;;16.02;6.78;;;;;;;;;;5061514;28;20562;-82
2021/07/18 05:29:40;;;;;;;9.68;6.13;;;;;;;;;;5050883;28;20099;-82
2021/07/18 05:32:06;;;;;;;12.88;6.20;;;;;;;;;;5051302;28;20174;-82
2021/07/18 05:34:32;;;;;;;12.02;6.53;;;;;;;;;;5065786;28;20773;-82
2021/07/18 05:36:57;;;;;;;17.83;6.78;;;;;;;;;;5053455;28;20035;-82
2021/07/18 05:39:22;;;;;;;14.85;5.63;;;;;;;;;;5062316;28;20105;-82
2021/07/18 05:41:47;;;;;;;22.02;6.07;;;;;;;;;;5070833;28;20047;-82
2021/07/18 05:44:13;;;;;;;12.97;6.23;;;;;;;;;;5058828;28;20109;-82
2021/07/18 05:46:38;;;;;;;13.45;6.72;;;;;;;;;;5037941;28;20270;-82
2021/07/18 05:49:03;;;;;;;16.92;7.18;;;;;;;;;;5111428;22;20047;-65
2021/07/18 05:51:28;;;;;;;17.17;8.03;;;;;;;;;;5090626;28;20031;-64
2021/07/18 05:53:53;;;;;;;15.87;7.33;;;;;;;;;;5093529;28;20270;-64
2021/07/18 05:56:19;;;;;;;12.47;7.07;;;;;;;;;;5092117;28;20020;-64
2021/07/18 05:58:44;;;;;;;15.63;7.40;;;;;;;;;;5084569;28;20962;-64
2021/07/18 06:01:09;;;;;;;15.17;7.40;;;;;;;;;;5079472;28;20115;-65
2021/07/18 06:03:35;;;;;;;21.98;8.20;;;;;;;;;;5108419;22;20313;-65
2021/07/18 06:06:00;;;;;;;11.27;6.88;;;;;;;;;;5086866;28;20067;-66
2021/07/18 06:08:25;;;;;;;18.20;7.68;;;;;;;;;;5091708;28;20020;-67
2021/07/18 06:10:50;;;;;;;18.60;8.37;;;;;;;;;;5087469;28;20029;-65
2021/07/18 06:13:15;;;;;;;16.10;7.70;;;;;;;;;;5086210;28;20388;-66
2021/07/18 06:15:40;;;;;;;11.82;7.32;;;;;;;;;;5060829;28;20772;-66
2021/07/18 06:18:06;;;;;;;19.87;6.83;;;;;;;;;;5066580;28;20103;-65
2021/07/18 06:20:31;;;;;;;18.85;7.22;;;;;;;;;;5062908;28;20289;-65
2021/07/18 06:22:56;;;;;;;16.67;6.73;;;;;;;;;;5078860;28;20024;-65
2021/07/18 06:25:21;;;;;;;16.33;8.17;;;;;;;;;;5069556;28;20318;-66
2021/07/18 06:27:47;;;;;;;23.07;9.13;;;;;;;;;;5053195;28;20680;-66
2021/07/18 06:30:12;;;;;;;16.67;6.75;;;;;;;;;;5052855;28;20259;-66
2021/07/18 06:32:38;;;;;;;14.48;7.07;;;;;;;;;;5052701;28;20020;-66
2021/07/18 06:35:03;;;;;;;17.48;6.43;;;;;;;;;;5053143;28;20039;-65
2021/07/18 06:37:29;;;;;;;15.38;6.55;;;;;;;;;;5059672;28;20051;-66
2021/07/18 06:39:54;;;;;;;11.75;6.47;;;;;;;;;;5065822;28;20495;-67
2021/07/18 06:42:20;;;;;;;12.50;6.32;;;;;;;;;;5074648;28;20372;-65
2021/07/18 06:44:45;;;;;;;16.70;7.13;;;;;;;;;;5077885;28;20032;-65
2021/07/18 06:47:10;;;;;;;10.93;5.45;;;;;;;;;;5064098;28;20020;-69
2021/07/18 06:49:36;;;;;;;8.87;4.87;;;;;;;;;;5082444;28;20016;-66
2021/07/18 06:52:01;;;;;;;14.50;4.90;;;;;;;;;;5073915;28;20324;-68
2021/07/18 06:54:26;;;;;;;13.43;5.78;;;;;;;;;;5076141;28;20028;-65
2021/07/18 06:56:51;;;;;;;9.55;4.65;;;;;;;;;;5070170;28;20461;-66
2021/07/18 06:59:17;;;;;;;13.83;5.33;;;;;;;;;;5068105;28;20024;-66
2021/07/18 07:01:42;;;;;;;11.95;4.95;;;;;;;;;;5064156;28;20848;-66
2021/07/18 07:04:07;;;;;;;9.32;5.03;;;;;;;;;;5065453;28;20491;-66
2021/07/18 07:06:33;;;;;;;20.83;6.78;;;;;;;;;;5050244;28;20020;-66
2021/07/18 07:08:58;;;;;;;16.00;5.78;;;;;;;;;;5050297;28;20037;-67
2021/07/18 07:11:23;;;;;;;15.00;5.13;;;;;;;;;;5071125;28;20139;-67
2021/07/18 07:13:50;;;;;;;9.13;4.97;;;;;;;;;;5073415;28;20766;-65
2021/07/18 07:16:15;;;;;;;12.50;4.10;;;;;;;;;;5067729;28;20029;-66
2021/07/18 07:18:41;;;;;;;13.73;5.18;;;;;;;;;;5066445;28;20496;-67
2021/07/18 07:21:06;;;;;;;9.55;4.43;;;;;;;;;;5061387;28;20025;-65
2021/07/18 07:23:32;;;;;;;12.05;4.70;;;;;;;;;;5057994;28;20023;-67
2021/07/18 07:25:57;;;;;;;11.10;4.03;;;;;;;;;;5071951;28;20031;-67
2021/07/18 07:28:22;;;;;;;13.40;4.53;;;;;;;;;;5049488;28;20686;-67
2021/07/18 07:30:47;;;;;;;9.33;4.00;;;;;;;;;;5053467;28;20025;-66
2021/07/18 07:33:13;;;;;;;7.40;4.25;;;;;;;;;;5064817;28;20275;-67
2021/07/18 07:35:38;;;;;;;7.30;3.47;;;;;;;;;;5064191;28;20049;-67
2021/07/18 07:38:05;;;;;;;10.38;4.00;;;;;;;;;;5051632;28;20024;-66
2021/07/18 07:40:31;;;;;;;8.65;4.55;;;;;;;;;;5068462;28;20452;-66
2021/07/18 07:42:56;;;;;;;10.15;4.40;;;;;;;;;;5071164;28;20020;-66
2021/07/18 07:45:21;;;;;;;9.13;4.13;;;;;;;;;;5051481;28;20444;-67
2021/07/18 07:47:46;;;;;;;8.47;4.50;;;;;;;;;;5060395;28;20036;-66
2021/07/18 07:50:12;;;;;;;7.88;4.00;;;;;;;;;;5065709;28;20275;-67
2021/07/18 07:52:37;;;;;;;7.72;3.78;;;;;;;;;;5068985;28;20020;-68
2021/07/18 07:55:04;;;;;;;6.15;3.63;;;;;;;;;;5068509;28;20017;-66
2021/07/18 07:57:29;;;;;;;11.10;3.67;;;;;;;;;;5077075;28;20025;-66
2021/07/18 07:59:54;;;;;;;9.43;4.13;;;;;;;;;;5048926;28;20040;-66
2021/07/18 08:02:19;;;;;;;10.40;3.73;;;;;;;;;;5067181;28;20024;-66
2021/07/18 08:04:45;;;;;;;5.67;2.83;;;;;;;;;;5069250;28;20484;-66
2021/07/18 08:07:10;;;;;;;7.00;3.20;;;;;;;;;;5068913;28;20054;-66
2021/07/18 08:09:35;;;;;;;8.57;3.23;;;;;;;;;;5068068;28;20316;-67
2021/07/18 08:12:00;;;;;;;7.03;2.90;;;;;;;;;;5058019;28;20037;-66
2021/07/18 08:14:25;;;;;;;4.80;2.60;;;;;;;;;;5060837;28;20103;-66
2021/07/18 08:16:50;;;;;;;12.77;2.93;;;;;;;;;;5064322;28;20078;-66
2021/07/18 08:19:16;;;;;;;6.88;3.28;;;;;;;;;;5068041;28;20265;-67
2021/07/18 08:21:41;;;;;;;6.53;2.58;;;;;;;;;;5076255;28;20055;-66
2021/07/18 08:24:06;;;;;;;5.17;2.90;;;;;;;;;;5074797;28;20497;-65
2021/07/18 08:26:31;;;;;;;15.15;3.30;;;;;;;;;;5065293;28;20272;-66
2021/07/18 08:28:57;;;;;;;8.60;3.63;;;;;;;;;;5064545;28;20028;-66
2021/07/18 08:31:22;;;;;;;9.90;2.45;;;;;;;;;;5070493;28;20112;-67
2021/07/18 08:33:47;;;;;;;7.30;3.03;;;;;;;;;;5063873;28;20021;-65
2021/07/18 08:36:12;;;;;;;9.73;3.03;;;;;;;;;;5059480;28;20037;-66
2021/07/18 08:38:38;;;;;;;9.97;3.23;;;;;;;;;;5050646;28;20102;-65
2021/07/18 08:41:03;;;;;;;10.37;4.23;;;;;;;;;;5053877;28;20287;-66
2021/07/18 08:43:30;;;;;;;7.60;2.85;;;;;;;;;;5070385;28;20334;-67
2021/07/18 08:45:55;;;;;;;7.25;3.80;;;;;;;;;;5054312;28;20043;-65
2021/07/18 08:48:20;;;;;;;8.77;2.70;;;;;;;;;;5053990;28;20052;-66
2021/07/18 08:50:48;;;;;;;6.57;3.03;;;;;;;;;;5058984;28;20464;-66
2021/07/18 08:53:13;;;;;;;5.65;2.70;;;;;;;;;;5056449;28;20032;-66
2021/07/18 08:55:39;;;;;;;5.90;3.42;;;;;;;;;;5057560;28;20107;-66
2021/07/18 08:58:05;;;;;;;9.68;3.20;;;;;;;;;;5070139;28;20346;-66
2021/07/18 09:00:30;;;;;;;5.40;2.75;;;;;;;;;;5070198;28;20381;-66
2021/07/18 09:02:55;;;;;;;6.70;2.45;;;;;;;;;;5070091;28;20060;-67
2021/07/18 09:05:20;;;;;;;8.87;2.50;;;;;;;;;;5068794;28;20032;-66
2021/07/18 09:07:46;;;;;;;3.58;2.10;;;;;;;;;;5070056;28;20269;-65
2021/07/18 09:10:12;;;;;;;4.65;2.47;;;;;;;;;;5063642;28;20063;-66
2021/07/18 09:12:37;;;;;;;9.70;3.03;;;;;;;;;;5050605;28;20499;-65
2021/07/18 09:15:03;;;;;;;8.33;2.67;;;;;;;;;;5065186;28;20021;-66
2021/07/18 09:17:32;;;;;;;8.13;2.72;;;;;;;;;;5049945;28;20025;-66
2021/07/18 09:20:00;;;;;;;5.60;2.42;;;;;;;;;;5050085;28;20021;-65
2021/07/18 09:22:26;;;;;;;5.03;2.58;;;;;;;;;;5049788;28;20286;-66
2021/07/18 09:24:51;;;;;;;6.72;2.47;;;;;;;;;;5055075;28;20100;-67
2021/07/18 09:27:18;;;;;;;4.13;1.90;;;;;;;;;;5069893;28;20021;-67
2021/07/18 09:29:47;;;;;;;5.10;2.70;;;;;;;;;;5054949;28;20052;-66
2021/07/18 09:32:14;;;;;;;6.72;3.08;;;;;;;;;;5049646;28;20100;-66
2021/07/18 09:34:44;;;;;;;8.57;2.70;;;;;;;;;;5059428;28;20028;-67
2021/07/18 09:37:11;;;;;;;9.98;2.50;;;;;;;;;;5061884;28;20037;-66
2021/07/18 09:39:37;;;;;;;7.75;3.05;;;;;;;;;;5049544;28;20025;-66
2021/07/18 09:42:02;;;;;;;5.93;2.88;;;;;;;;;;5058754;28;20021;-66
2021/07/18 09:44:39;;;;;;;7.50;2.50;;;;;;;;;;5049577;28;20374;-66
2021/07/18 09:47:04;;;;;;;6.82;2.90;;;;;;;;;;5049745;28;20043;-65
2021/07/18 09:49:33;;;;;;;5.10;2.67;;;;;;;;;;5060546;28;20103;-67
2021/07/18 09:52:12;;;;;;;4.68;2.85;;;;;;;;;;5058490;28;20107;-65
2021/07/18 09:54:37;;;;;;;5.00;2.25;;;;;;;;;;5051684;28;20029;-67
2021/07/18 09:57:02;;;;;;;7.00;2.90;;;;;;;;;;5049906;28;20025;-65
2021/07/18 09:59:28;;;;;;;7.70;3.00;;;;;;;;;;5049492;28;20262;-67
2021/07/18 10:01:54;;;;;;;8.45;3.50;;;;;;;;;;5050021;28;20021;-65
2021/07/18 10:04:19;;;;;;;8.13;3.28;;;;;;;;;;5050159;28;20033;-65
2021/07/18 10:06:44;;;;;;;9.95;3.35;;;;;;;;;;5068087;28;20380;-66
2021/07/18 10:09:10;;;;;;;9.17;3.37;;;;;;;;;;5069634;28;20461;-66
2021/07/18 10:11:36;;;;;;;7.97;3.50;;;;;;;;;;5067549;28;20035;-68
2021/07/18 10:14:01;;;;;;;5.20;3.10;;;;;;;;;;5067921;28;20020;-68
2021/07/18 10:16:28;;;;;;;9.97;2.90;;;;;;;;;;5069462;28;20247;-66
2021/07/18 10:18:56;;;;;;;7.95;3.60;;;;;;;;;;5073044;28;20610;-66
2021/07/18 10:21:24;;;;;;;6.57;3.42;;;;;;;;;;5071685;28;20028;-67
2021/07/18 10:23:50;;;;;;;10.65;4.15;;;;;;;;;;5073061;28;20035;-67
2021/07/18 10:26:19;;;;;;;8.85;2.92;;;;;;;;;;5073068;28;20033;-68
2021/07/18 10:28:47;;;;;;;7.05;2.90;;;;;;;;;;5071912;28;20012;-68
2021/07/18 10:31:15;;;;;;;6.38;3.33;;;;;;;;;;5072746;28;20029;-68
2021/07/18 10:33:44;;;;;;;4.75;2.90;;;;;;;;;;5065651;28;20071;-67
2021/07/18 10:36:10;;;;;;;4.55;2.92;;;;;;;;;;5052939;28;20460;-66
2021/07/18 10:38:36;;;;;;;5.88;3.60;;;;;;;;;;5052734;28;20044;-65
2021/07/18 10:41:01;;;;;;;3.50;2.67;;;;;;;;;;5063596;28;20052;-66
2021/07/18 10:43:40;;;;;;;5.72;3.63;;;;;;;;;;5068781;28;20765;-67
2021/07/18 10:46:07;;;;;;;6.50;2.95;;;;;;;;;;5062948;28;20017;-66
2021/07/18 10:48:48;;;;;;;8.93;3.20;;;;;;;;;;5062873;28;20029;-66
2021/07/18 10:51:15;;;;;;;5.43;2.90;;;;;;;;;;5052358;28;20095;-66
2021/07/18 10:53:40;;;;;;;7.78;3.25;;;;;;;;;;5064147;28;20017;-66
2021/07/18 10:56:06;;;;;;;4.28;2.30;;;;;;;;;;5072859;28;20012;-69
2021/07/18 10:58:37;;;;;;;3.60;2.42;;;;;;;;;;5065735;28;20022;-65
2021/07/18 11:01:02;;;;;;;6.45;2.67;;;;;;;;;;5067632;28;20028;-67
2021/07/18 11:03:34;;;;;;;5.45;2.72;;;;;;;;;;5060884;28;20020;-66
2021/07/18 11:06:19;;;;;;;3.90;2.25;;;;;;;;;;5057136;28;20025;-68
2021/07/18 11:09:03;;;;;;;6.07;2.42;;;;;;;;;;5053678;28;20048;-67
2021/07/18 11:11:40;;;;;;;2.63;2.03;;;;;;;;;;5062104;28;20171;-67
2021/07/18 11:14:20;;;;;;;3.42;1.92;;;;;;;;;;5063196;28;20013;-67
2021/07/18 11:16:46;;;;;;;8.27;2.33;;;;;;;;;;5055887;28;20025;-66
2021/07/18 11:19:47;;;;;;;3.63;1.75;;;;;;;;;;5058033;28;20025;-67
2021/07/18 11:22:13;;;;;;;7.05;1.95;;;;;;;;;;4951673;28;20455;-66
2021/07/18 11:24:47;;;;;;;2.85;2.10;;;;;;;;;;5033121;28;20029;-66
2021/07/18 11:27:22;;;;;;;3.58;1.98;;;;;;;;;;5051832;28;20017;-66
2021/07/18 11:29:47;;;;;;;8.43;2.00;;;;;;;;;;5065998;28;20031;-66
2021/07/18 11:32:31;;;;;;;2.33;1.70;;;;;;;;;;5071957;28;20013;-67
2021/07/18 11:34:57;;;;;;;3.53;2.15;;;;;;;;;;5060501;28;20302;-68
2021/07/18 11:37:24;;;;;;;4.43;2.03;;;;;;;;;;5051922;28;20112;-68
2021/07/18 11:39:49;;;;;;;6.72;2.30;;;;;;;;;;5051836;28;20109;-69
2021/07/18 11:42:15;;;;;;;2.63;2.03;;;;;;;;;;5052066;28;20033;-66
2021/07/18 11:44:44;;;;;;;8.00;3.30;;;;;;;;;;5051876;28;20021;-66
2021/07/18 11:47:11;;;;;;;4.15;1.70;;;;;;;;;;5051078;28;20056;-67
2021/07/18 11:49:38;;;;;;;3.60;2.22;;;;;;;;;;5061319;28;20021;-66
2021/07/18 11:52:05;;;;;;;4.25;2.20;;;;;;;;;;5068047;28;20619;-67
2021/07/18 11:54:30;;;;;;;4.95;2.28;;;;;;;;;;5054480;28;20017;-68
2021/07/18 11:56:55;;;;;;;6.35;2.25;;;;;;;;;;5068523;28;20035;-66
2021/07/18 11:59:22;;;;;;;3.30;1.80;;;;;;;;;;5071064;28;20028;-66
2021/07/18 12:01:48;;;;;;;4.43;1.95;;;;;;;;;;5067506;28;20028;-66
2021/07/18 12:04:22;;;;;;;4.80;2.40;;;;;;;;;;5089701;22;20040;-64
2021/07/18 12:06:47;;;;;;;4.55;2.28;;;;;;;;;;5060031;28;20035;-64
2021/07/18 12:09:16;;;;;;;5.20;1.93;;;;;;;;;;5049922;28;20017;-64
2021/07/18 12:11:42;;;;;;;4.93;2.03;;;;;;;;;;5054025;28;20177;-64
2021/07/18 12:14:08;;;;;;;4.97;2.20;;;;;;;;;;5050906;28;20032;-65
2021/07/18 12:16:33;;;;;;;5.25;2.63;;;;;;;;;;5084706;22;20582;-84
2021/07/18 12:18:58;;;;;;;7.70;2.22;;;;;;;;;;5061576;28;20055;-84
2021/07/18 12:21:25;;;;;;;12.23;3.08;;;;;;;;;;5068747;28;20027;-85
2021/07/18 12:24:09;;;;;;;10.75;3.03;;;;;;;;;;5051847;28;20448;-84
2021/07/18 12:26:34;;;;;;;5.22;2.47;;;;;;;;;;5069705;28;20395;-84
2021/07/18 12:29:06;;;;;;;9.20;2.72;;;;;;;;;;5069207;28;20066;-85
2021/07/18 12:31:32;;;;;;;16.20;3.58;;;;;;;;;;5061989;28;20101;-85
2021/07/18 12:33:57;;;;;;;8.07;2.63;;;;;;;;;;5061833;28;20056;-84
2021/07/18 12:36:22;;;;;;;6.83;2.47;;;;;;;;;;5050266;28;20024;-84
2021/07/18 12:38:47;;;;;;;5.97;3.10;;;;;;;;;;5050164;28;20048;-85
2021/07/18 12:41:13;;;;;;;6.70;3.07;;;;;;;;;;5047395;28;20303;-84
2021/07/18 12:43:39;;;;;;;12.20;2.65;;;;;;;;;;5068364;28;20302;-84
2021/07/18 12:46:04;;;;;;;8.15;2.90;;;;;;;;;;5056284;28;20093;-84
2021/07/18 12:48:29;;;;;;;5.60;2.42;;;;;;;;;;5048354;28;20090;-84
2021/07/18 12:50:54;;;;;;;10.50;2.27;;;;;;;;;;5052869;28;20017;-84
2021/07/18 12:53:20;;;;;;;6.93;2.77;;;;;;;;;;5068983;28;20035;-84
2021/07/18 12:55:46;;;;;;;9.57;2.40;;;;;;;;;;5068834;28;20479;-84
2021/07/18 12:58:13;;;;;;;8.13;2.72;;;;;;;;;;5053103;28;20078;-84
2021/07/18 13:00:38;;;;;;;6.13;2.42;;;;;;;;;;5057845;28;20027;-84
2021/07/18 13:03:07;;;;;;;5.45;2.00;;;;;;;;;;5068021;28;20032;-85
2021/07/18 13:05:32;;;;;;;8.93;2.17;;;;;;;;;;5067982;28;20754;-84
2021/07/18 13:07:58;;;;;;;10.63;3.20;;;;;;;;;;5068195;28;20024;-84
2021/07/18 13:10:23;;;;;;;4.97;2.30;;;;;;;;;;5067708;28;20059;-84
2021/07/18 13:12:58;;;;;;;6.47;3.08;;;;;;;;;;5061388;28;20127;-84
2021/07/18 13:15:23;;;;;;;8.27;2.35;;;;;;;;;;5050244;28;20547;-84
2021/07/18 13:17:49;;;;;;;6.60;2.60;;;;;;;;;;5049752;28;20107;-84
2021/07/18 13:20:14;;;;;;;4.57;2.27;;;;;;;;;;5048034;28;20384;-84
2021/07/18 13:22:43;;;;;;;4.72;2.67;;;;;;;;;;5030962;28;20290;-84
2021/07/18 13:25:24;;;;;;;6.32;2.70;;;;;;;;;;5062670;28;20025;-84
2021/07/18 13:27:50;;;;;;;12.38;2.85;;;;;;;;;;5068225;28;20066;-84
2021/07/18 13:30:16;;;;;;;4.72;2.13;;;;;;;;;;5049360;28;20025;-85
2021/07/18 13:32:42;;;;;;;8.40;2.63;;;;;;;;;;5066697;28;20045;-84
2021/07/18 13:35:10;;;;;;;8.40;2.00;;;;;;;;;;5040926;28;20683;-84
2021/07/18 13:37:35;;;;;;;6.63;2.42;;;;;;;;;;5067750;28;20032;-84
2021/07/18 13:40:02;;;;;;;9.03;2.50;;;;;;;;;;5059333;28;20032;-84
2021/07/18 13:42:35;;;;;;;6.75;2.60;;;;;;;;;;5028404;28;20025;-85
2021/07/18 13:45:00;;;;;;;6.53;2.60;;;;;;;;;;5030687;28;20024;-84
2021/07/18 13:47:25;;;;;;;8.37;2.47;;;;;;;;;;5048643;28;20017;-85
2021/07/18 13:49:50;;;;;;;8.15;3.30;;;;;;;;;;5066406;28;20259;-84
2021/07/18 13:52:16;;;;;;;8.63;2.40;;;;;;;;;;5071313;28;20503;-84
2021/07/18 13:54:41;;;;;;;7.57;2.13;;;;;;;;;;5072447;28;20103;-85
2021/07/18 13:57:06;;;;;;;5.00;2.23;;;;;;;;;;5071981;28;20020;-84
2021/07/18 13:59:31;;;;;;;9.27;2.80;;;;;;;;;;5071373;28;20609;-83
2021/07/18 14:01:57;;;;;;;5.70;2.30;;;;;;;;;;5053828;28;20025;-85
2021/07/18 14:04:22;;;;;;;7.85;2.80;;;;;;;;;;5042789;28;20027;-84
2021/07/18 14:06:47;;;;;;;8.23;3.07;;;;;;;;;;5050672;28;20472;-86
2021/07/18 14:09:12;;;;;;;16.10;2.83;;;;;;;;;;5056558;28;20025;-84
2021/07/18 14:11:37;;;;;;;5.20;2.97;;;;;;;;;;5055175;28;20259;-84
2021/07/18 14:14:03;;;;;;;10.63;2.97;;;;;;;;;;5045170;28;20325;-84
2021/07/18 14:16:28;;;;;;;3.00;2.10;;;;;;;;;;5063361;28;20032;-85
2021/07/18 14:18:53;;;;;;;7.50;2.90;;;;;;;;;;5064234;28;20073;-84
2021/07/18 14:21:18;;;;;;;6.57;2.90;;;;;;;;;;5044798;28;20484;-84
2021/07/18 14:23:44;;;;;;;9.50;3.00;;;;;;;;;;5050878;28;20924;-84
2021/07/18 14:26:10;;;;;;;5.57;2.70;;;;;;;;;;5057287;28;20048;-84
2021/07/18 14:28:35;;;;;;;6.63;3.08;;;;;;;;;;5031509;28;20017;-84
2021/07/18 14:31:00;;;;;;;6.53;3.00;;;;;;;;;;5059303;28;20477;-84
2021/07/18 14:33:25;;;;;;;7.13;2.83;;;;;;;;;;5068477;28;20052;-84